首页
METAR-TAF:

METAR-TAF

机场 :

Teterboro, 新泽西州, 美国

纬度: 40-51-32N, 经度: 074-03-24W, 海拔: 2米

当前天气观测

该预报发布于31分钟前的16:51 UTC
风速5节,风向多变
温度 8°C
湿度 36%
气压 1024 hPa
能見度: 16.1公里
天空无云

METAR: KTEB 171651Z VRB05KT 10SM CLR 08/M06 A3025 RMK AO2 SLP244 T00781061

时间: 12:22 (17:22 UTC)

预报

该预报发布于1小时和52分钟前的15:30 UTC
预报有效从17日的 16点(UTC)到 18日的 18点(UTC)
风速6节,风向北转西北
能見度: 10公里
天空无云
从 17日的 2300点(UTC)
风速5节,风向北转东北
能見度: 10公里
散云层高于25000英尺
从 18日的 0300点(UTC)
风速4节,风向东转东北
能見度: 10公里
散云层高于20000英尺
从 18日的 0900点(UTC)
风速4节,风向
能見度: 10公里
多云层高于15000英尺
从 18日的 1200点(UTC)
风速12节,风向东转东南
能見度: 8.0公里
多云层高于3500英尺
轻雾
从 18日的 1500点(UTC)
风速13节,风向东南
能見度: 8.0公里
阴天层高于1500英尺
小雨, 轻雾

TAF: KTEB 171530Z 1716/1818 33006KT P6SM SKC FM172300 02005KT P6SM SCT250 FM180300 06004KT P6SM SCT200 FM180900 09004KT P6SM BKN150 FM181200 11012KT 5SM BR BKN035 FM181500 13013KT 5SM -RA BR OVC015

超过4000个机场的气象观测和天气预报(METAR&TAF报告)。

可查询的气象台以黄色和红色小点在地图上表示。

将鼠标移到小点上方,可查看气象台名称。

然后点击查看天气观测和预报。

如需切换地图:点击带黑十字的绿色按钮放大地图;点击带横线的绿色按钮缩小地图;或者点击绿色箭头查看邻近地区的地图。


METAR-TAF: